createdAt,value
2022-12-22T00:01:31.921Z,15.83
2022-12-22T00:03:52.773Z,18.53
2022-12-22T00:06:13.397Z,18.97
2022-12-22T00:08:34.087Z,17.40
2022-12-22T00:10:54.963Z,22.73
2022-12-22T00:13:15.835Z,20.70
2022-12-22T00:15:36.739Z,19.83
2022-12-22T00:17:57.360Z,16.43
2022-12-22T00:20:18.777Z,21.20
2022-12-22T00:22:43.889Z,24.30
2022-12-22T00:25:04.641Z,20.40
2022-12-22T00:27:51.107Z,16.23
2022-12-22T00:30:11.762Z,17.17
2022-12-22T00:32:32.645Z,15.90
2022-12-22T00:35:00.616Z,14.97
2022-12-22T00:37:21.591Z,16.20
2022-12-22T00:39:43.627Z,26.13
2022-12-22T00:42:04.353Z,13.80
2022-12-22T00:44:24.675Z,16.20
2022-12-22T00:46:45.633Z,16.00
2022-12-22T00:49:06.726Z,14.80
2022-12-22T00:51:27.813Z,13.00
2022-12-22T00:53:48.425Z,13.43
2022-12-22T00:56:09.100Z,11.80
2022-12-22T00:58:35.359Z,12.47
2022-12-22T01:00:55.971Z,13.07
2022-12-22T01:03:16.733Z,13.77
2022-12-22T01:05:37.309Z,20.13
2022-12-22T01:07:57.772Z,15.10
2022-12-22T01:10:19.335Z,19.23
2022-12-22T01:12:42.409Z,17.90
2022-12-22T01:15:03.272Z,16.83
2022-12-22T01:17:24.033Z,22.00
2022-12-22T01:19:44.920Z,17.23
2022-12-22T01:22:05.890Z,18.73
2022-12-22T01:24:33.579Z,23.73
2022-12-22T01:26:54.002Z,16.63
2022-12-22T01:29:14.235Z,23.17
2022-12-22T01:31:36.673Z,23.67
2022-12-22T01:33:57.237Z,21.27
2022-12-22T01:36:18.323Z,19.83
2022-12-22T01:38:39.209Z,22.10
2022-12-22T01:40:59.493Z,23.57
2022-12-22T01:43:20.332Z,20.10
2022-12-22T01:45:43.379Z,26.03
2022-12-22T01:48:03.627Z,26.33
2022-12-22T01:50:24.479Z,23.50
2022-12-22T01:52:50.341Z,22.80
2022-12-22T01:55:11.339Z,24.73
2022-12-22T01:57:31.704Z,21.73
2022-12-22T01:59:52.685Z,22.90
2022-12-22T02:02:13.482Z,25.93
2022-12-22T02:04:36.672Z,25.53
2022-12-22T02:07:00.430Z,21.37
2022-12-22T02:09:27.172Z,28.30
2022-12-22T02:12:29.368Z,22.27
2022-12-22T02:15:05.464Z,23.10
2022-12-22T02:17:32.136Z,23.97
2022-12-22T02:20:30.347Z,23.90
2022-12-22T02:22:55.701Z,27.80
2022-12-22T02:25:24.080Z,27.17
2022-12-22T02:27:45.726Z,25.20
2022-12-22T02:30:14.589Z,24.07
2022-12-22T02:32:35.039Z,26.90
2022-12-22T02:34:55.643Z,29.33
2022-12-22T02:37:33.723Z,26.23
2022-12-22T02:40:21.831Z,30.90
2022-12-22T02:43:33.268Z,27.03
2022-12-22T02:46:20.024Z,29.33
2022-12-22T02:49:14.191Z,26.93
2022-12-22T02:51:37.203Z,25.33
2022-12-22T02:53:58.285Z,30.30
2022-12-22T02:56:23.342Z,26.23
2022-12-22T02:58:44.273Z,25.80
2022-12-22T03:01:05.280Z,28.77
2022-12-22T03:03:26.280Z,25.77
2022-12-22T03:05:47.173Z,27.90
2022-12-22T03:08:08.663Z,24.33
2022-12-22T03:10:29.773Z,24.63
2022-12-22T03:12:50.578Z,24.40
2022-12-22T03:15:11.068Z,27.77
2022-12-22T03:17:32.079Z,24.50
2022-12-22T03:19:52.509Z,22.80
2022-12-22T03:22:12.834Z,20.07
2022-12-22T03:24:33.578Z,24.93
2022-12-22T03:26:36.077Z,22.77
2022-12-22T03:28:38.030Z,20.10
2022-12-22T03:30:40.003Z,22.20
2022-12-22T03:32:41.971Z,25.03
2022-12-22T03:34:43.942Z,21.17
2022-12-22T03:36:45.887Z,22.27
2022-12-22T03:38:47.911Z,32.83
2022-12-22T03:40:49.925Z,22.30
2022-12-22T03:43:10.311Z,19.80
2022-12-22T03:45:30.652Z,22.77
2022-12-22T03:47:32.731Z,20.60
2022-12-22T03:49:34.715Z,20.87
2022-12-22T03:51:43.945Z,19.93
2022-12-22T03:53:45.959Z,26.23
2022-12-22T03:55:47.887Z,21.93
2022-12-22T03:57:49.883Z,20.40
2022-12-22T03:59:51.841Z,22.40
2022-12-22T04:01:55.018Z,21.63
2022-12-22T04:03:57.160Z,22.80
2022-12-22T04:05:59.370Z,21.20
2022-12-22T04:08:01.328Z,22.93
2022-12-22T04:10:23.087Z,21.30
2022-12-22T04:12:43.778Z,25.30
2022-12-22T04:14:45.779Z,20.87
2022-12-22T04:16:48.117Z,20.07
2022-12-22T04:18:50.275Z,26.63
2022-12-22T04:20:52.257Z,22.47
2022-12-22T04:22:56.076Z,19.77
2022-12-22T04:24:58.109Z,23.37
2022-12-22T04:27:00.052Z,20.17
2022-12-22T04:29:02.145Z,19.60
2022-12-22T04:31:04.280Z,24.53
2022-12-22T04:33:06.242Z,19.67
2022-12-22T04:35:09.398Z,28.03
2022-12-22T04:37:17.149Z,19.80
2022-12-22T04:39:19.606Z,24.07
2022-12-22T04:41:21.625Z,22.50
2022-12-22T04:43:23.598Z,23.63
2022-12-22T04:45:25.598Z,24.33
2022-12-22T04:47:27.633Z,21.43
2022-12-22T04:49:29.635Z,22.80
2022-12-22T04:51:31.673Z,23.30
2022-12-22T04:53:33.725Z,22.80
2022-12-22T04:55:35.885Z,20.87
2022-12-22T04:57:40.777Z,25.13
2022-12-22T04:59:43.141Z,29.40
2022-12-22T05:01:45.249Z,26.57
2022-12-22T05:03:47.676Z,21.83
2022-12-22T05:05:49.667Z,20.17
2022-12-22T05:07:51.634Z,21.20
2022-12-22T05:09:53.675Z,25.30
2022-12-22T05:11:55.800Z,23.73
2022-12-22T05:14:02.077Z,21.57
2022-12-22T05:16:09.862Z,26.60
2022-12-22T05:18:13.271Z,24.27
2022-12-22T05:20:15.628Z,23.10
2022-12-22T05:22:17.651Z,22.40
2022-12-22T05:24:19.609Z,23.17
2022-12-22T05:26:21.622Z,21.90
2022-12-22T05:28:23.640Z,20.00
2022-12-22T05:30:25.683Z,18.20
2022-12-22T05:32:27.944Z,28.30
2022-12-22T05:34:29.954Z,18.57
2022-12-22T05:36:31.940Z,20.00
2022-12-22T05:38:33.950Z,21.20
2022-12-22T05:40:35.941Z,18.37
2022-12-22T05:42:37.981Z,20.23
2022-12-22T05:44:39.924Z,18.17
2022-12-22T05:46:42.031Z,18.00
2022-12-22T05:48:44.069Z,17.17
2022-12-22T05:50:46.274Z,19.77
2022-12-22T05:52:48.398Z,15.93
2022-12-22T05:54:50.474Z,17.60
2022-12-22T05:56:52.558Z,18.40
2022-12-22T05:58:54.532Z,23.27
2022-12-22T06:00:58.341Z,19.50
2022-12-22T06:03:00.534Z,23.07
2022-12-22T06:05:02.743Z,16.97
2022-12-22T06:07:04.737Z,18.57
2022-12-22T06:09:06.718Z,18.57
2022-12-22T06:11:08.782Z,21.30
2022-12-22T06:13:10.906Z,17.50
2022-12-22T06:15:14.696Z,19.37
2022-12-22T06:17:16.783Z,18.57
2022-12-22T06:19:18.892Z,15.37
2022-12-22T06:21:20.911Z,19.37
2022-12-22T06:23:23.287Z,19.60
2022-12-22T06:25:25.222Z,18.00
2022-12-22T06:27:27.224Z,23.00
2022-12-22T06:29:29.186Z,17.67
2022-12-22T06:31:31.257Z,20.20
2022-12-22T06:33:34.492Z,17.93
2022-12-22T06:35:37.068Z,18.50
2022-12-22T06:37:39.073Z,19.97
2022-12-22T06:39:41.085Z,17.60
2022-12-22T06:42:01.562Z,17.53
2022-12-22T06:44:03.645Z,20.17
2022-12-22T06:46:05.633Z,15.00
2022-12-22T06:48:08.906Z,14.87
2022-12-22T06:50:11.306Z,13.03
2022-12-22T06:52:13.257Z,13.50
2022-12-22T06:54:16.734Z,21.53
2022-12-22T06:56:21.559Z,17.17
2022-12-22T06:58:23.578Z,12.80
2022-12-22T07:00:25.795Z,12.80
2022-12-22T07:02:28.027Z,11.07
2022-12-22T07:04:30.909Z,10.60
2022-12-22T07:06:32.928Z,11.63
2022-12-22T07:08:34.909Z,11.27
2022-12-22T07:10:55.970Z,10.80
2022-12-22T07:13:17.886Z,13.63
2022-12-22T07:15:19.981Z,9.07
2022-12-22T07:17:21.957Z,9.97
2022-12-22T07:19:23.944Z,9.03
2022-12-22T07:21:26.094Z,10.30
2022-12-22T07:23:28.486Z,12.23
2022-12-22T07:25:30.445Z,9.90
2022-12-22T07:27:32.443Z,8.83
2022-12-22T07:29:36.203Z,12.90
2022-12-22T07:31:38.206Z,9.00
2022-12-22T07:33:40.193Z,12.53
2022-12-22T07:35:42.205Z,13.30
2022-12-22T07:37:44.267Z,8.77
2022-12-22T07:39:46.253Z,12.53
2022-12-22T07:42:06.636Z,8.47
2022-12-22T07:44:08.682Z,37.80
2022-12-22T07:46:10.669Z,18.33
2022-12-22T07:48:31.413Z,11.53
2022-12-22T07:50:33.495Z,13.47
2022-12-22T07:52:35.491Z,8.30
2022-12-22T07:54:41.722Z,9.87
2022-12-22T07:56:46.106Z,8.77
2022-12-22T07:58:48.102Z,10.37
2022-12-22T08:00:50.121Z,10.67
2022-12-22T08:02:57.023Z,11.93
2022-12-22T08:04:59.304Z,11.60
2022-12-22T08:07:01.326Z,9.03
2022-12-22T08:09:05.126Z,9.50
2022-12-22T08:11:07.139Z,10.67
2022-12-22T08:13:09.163Z,8.17
2022-12-22T08:15:11.653Z,11.03
2022-12-22T08:17:13.631Z,9.60
2022-12-22T08:19:15.618Z,9.40
2022-12-22T08:21:17.804Z,7.87
2022-12-22T08:23:19.789Z,10.70
2022-12-22T08:25:21.764Z,8.77
2022-12-22T08:27:29.626Z,9.60
2022-12-22T08:29:35.371Z,8.40
2022-12-22T08:31:38.056Z,9.70
2022-12-22T08:33:40.223Z,8.73
2022-12-22T08:35:42.681Z,8.20
2022-12-22T08:37:46.010Z,8.60
2022-12-22T08:39:53.398Z,6.60
2022-12-22T08:41:55.380Z,7.00
2022-12-22T08:43:57.411Z,8.87
2022-12-22T08:45:59.334Z,5.73
2022-12-22T08:48:01.443Z,7.17
2022-12-22T08:50:04.413Z,7.33
2022-12-22T08:52:06.429Z,7.97
2022-12-22T08:54:08.451Z,6.33
2022-12-22T08:56:10.458Z,6.57
2022-12-22T08:58:12.489Z,5.43
2022-12-22T09:00:15.143Z,6.43
2022-12-22T09:02:17.444Z,8.00
2022-12-22T09:04:21.601Z,6.93
2022-12-22T09:06:27.642Z,7.03
2022-12-22T09:08:30.400Z,5.67
2022-12-22T09:10:32.397Z,7.10
2022-12-22T09:12:34.996Z,10.00
2022-12-22T09:14:37.076Z,6.10
2022-12-22T09:16:40.010Z,8.30
2022-12-22T09:18:42.118Z,5.20
2022-12-22T09:20:44.093Z,7.13
2022-12-22T09:22:46.078Z,6.07
2022-12-22T09:24:48.260Z,9.03
2022-12-22T09:26:50.267Z,8.53
2022-12-22T09:28:52.769Z,9.77
2022-12-22T09:30:54.771Z,6.83
2022-12-22T09:32:56.723Z,7.43
2022-12-22T09:34:58.680Z,6.33
2022-12-22T09:37:00.646Z,7.73
2022-12-22T09:39:06.600Z,7.90
2022-12-22T09:41:23.472Z,5.77
2022-12-22T09:43:29.503Z,7.40
2022-12-22T09:45:33.839Z,5.43
2022-12-22T09:47:38.763Z,8.13
2022-12-22T09:49:40.782Z,6.43
2022-12-22T09:51:45.344Z,9.70
2022-12-22T09:53:50.201Z,9.20
2022-12-22T09:55:52.225Z,6.37
2022-12-22T09:57:54.539Z,13.53
2022-12-22T09:59:58.726Z,5.40
2022-12-22T10:02:10.668Z,6.90
2022-12-22T10:04:34.714Z,6.13
2022-12-22T10:07:01.107Z,6.37
2022-12-22T10:09:46.189Z,7.93
2022-12-22T10:11:38.663Z,6.73
2022-12-22T10:13:40.784Z,6.03
2022-12-22T10:15:43.201Z,5.63
2022-12-22T10:17:45.291Z,9.00
2022-12-22T10:19:49.224Z,5.47
2022-12-22T10:21:51.295Z,7.27
2022-12-22T10:23:53.672Z,5.67
2022-12-22T10:28:26.697Z,11.50
2022-12-22T10:30:32.262Z,10.03
2022-12-22T10:32:34.383Z,9.17
2022-12-22T10:34:36.463Z,9.30
2022-12-22T10:36:38.939Z,14.47
2022-12-22T10:38:58.440Z,10.23
2022-12-22T10:41:19.003Z,9.00
2022-12-22T10:43:27.775Z,10.27
2022-12-22T10:45:29.826Z,9.20
2022-12-22T10:47:31.801Z,8.77
2022-12-22T10:51:41.401Z,11.23
2022-12-22T10:53:45.950Z,10.60
2022-12-22T10:56:05.581Z,12.63
2022-12-22T10:58:10.730Z,10.73
2022-12-22T11:00:26.773Z,12.80
2022-12-22T11:02:30.344Z,9.07
2022-12-22T11:04:32.425Z,12.07
2022-12-22T11:06:34.463Z,15.50
2022-12-22T11:08:36.704Z,13.90
2022-12-22T11:10:58.665Z,9.27
2022-12-22T11:13:06.694Z,7.03
2022-12-22T11:15:26.888Z,7.27
2022-12-22T11:17:40.919Z,6.60
2022-12-22T11:20:15.054Z,14.13
2022-12-22T11:22:33.949Z,9.67
2022-12-22T11:24:38.749Z,8.10
2022-12-22T11:27:00.129Z,5.63
2022-12-22T11:29:23.362Z,7.23
2022-12-22T11:31:34.565Z,8.27
2022-12-22T11:33:54.045Z,6.90
2022-12-22T11:36:00.921Z,5.73
2022-12-22T11:38:02.883Z,7.67
2022-12-22T11:40:28.972Z,5.87
2022-12-22T11:42:53.908Z,8.90
2022-12-22T11:45:25.203Z,5.83
2022-12-22T11:47:27.136Z,6.13
2022-12-22T11:49:49.093Z,5.60
2022-12-22T11:51:59.886Z,7.37
2022-12-22T11:54:10.571Z,7.37
2022-12-22T11:56:29.679Z,6.33
2022-12-22T11:58:58.565Z,5.03
2022-12-22T12:01:25.650Z,5.03
2022-12-22T12:03:33.022Z,6.10
2022-12-22T12:05:40.939Z,5.83
2022-12-22T12:07:49.242Z,5.80
2022-12-22T12:10:19.445Z,8.10
2022-12-22T12:12:49.337Z,6.00
2022-12-22T12:15:09.416Z,8.03
2022-12-22T12:17:29.930Z,6.57
2022-12-22T12:19:46.216Z,6.00
2022-12-22T12:21:52.170Z,5.23
2022-12-22T12:24:01.149Z,6.03
2022-12-22T12:26:18.889Z,7.00
2022-12-22T12:28:51.795Z,5.13
2022-12-22T12:30:59.499Z,5.40
2022-12-22T12:33:02.819Z,6.17
2022-12-22T12:35:30.505Z,6.73
2022-12-22T12:37:39.160Z,7.20
2022-12-22T12:39:55.323Z,11.17
2022-12-22T12:42:18.796Z,4.23
2022-12-22T12:44:24.603Z,11.03
2022-12-22T12:46:51.640Z,5.40
2022-12-22T12:48:56.310Z,7.63
2022-12-22T12:50:58.537Z,5.10
2022-12-22T12:53:06.452Z,5.47
2022-12-22T12:55:23.256Z,3.70
2022-12-22T12:57:48.497Z,3.20
2022-12-22T12:59:52.614Z,3.30
2022-12-22T13:01:56.334Z,3.37
2022-12-22T13:04:04.135Z,3.67
2022-12-22T13:06:32.118Z,5.23
2022-12-22T13:09:39.764Z,3.20
2022-12-22T13:12:11.352Z,3.20
2022-12-22T13:13:58.584Z,3.10
2022-12-22T13:16:00.660Z,4.23
2022-12-22T13:18:04.431Z,4.00
2022-12-22T13:20:13.377Z,3.30
2022-12-22T13:22:15.717Z,2.80
2022-12-22T13:24:25.338Z,3.27
2022-12-22T13:26:39.650Z,4.10
2022-12-22T13:28:44.577Z,3.57
2022-12-22T13:30:52.356Z,4.10
2022-12-22T13:32:55.972Z,3.70
2022-12-22T13:37:28.609Z,3.83
2022-12-22T13:39:30.716Z,3.80
2022-12-22T13:41:33.927Z,4.13
2022-12-22T13:43:36.281Z,3.83
2022-12-22T13:45:39.296Z,3.40
2022-12-22T13:47:43.009Z,4.30
2022-12-22T13:50:07.932Z,4.33
2022-12-22T13:52:12.867Z,5.13
2022-12-22T13:54:14.974Z,6.50
2022-12-22T13:56:20.625Z,5.37
2022-12-22T13:58:30.758Z,5.50
2022-12-22T14:00:33.627Z,5.70
2022-12-22T14:02:35.784Z,7.07
2022-12-22T14:04:40.297Z,5.23
2022-12-22T14:06:42.393Z,6.50
2022-12-22T14:08:44.356Z,5.83
2022-12-22T14:10:46.609Z,6.20
2022-12-22T14:12:48.615Z,5.70
2022-12-22T14:14:52.421Z,7.37
2022-12-22T14:16:57.013Z,7.40
2022-12-22T14:18:59.666Z,7.00
2022-12-22T14:21:01.835Z,7.00
2022-12-22T14:23:18.011Z,7.70
2022-12-22T14:25:23.329Z,9.47
2022-12-22T14:27:40.732Z,10.87
2022-12-22T14:29:43.076Z,8.93
2022-12-22T14:32:01.858Z,11.30
2022-12-22T14:34:05.551Z,10.03
2022-12-22T14:36:23.882Z,9.93
2022-12-22T14:38:26.747Z,13.20
2022-12-22T14:40:35.688Z,13.03
2022-12-22T14:42:43.189Z,16.33
2022-12-22T14:44:46.213Z,13.00
2022-12-22T14:47:16.146Z,14.33
2022-12-22T14:49:19.690Z,11.80
2022-12-22T14:51:21.900Z,13.53
2022-12-22T14:53:39.116Z,13.80
2022-12-22T14:55:42.506Z,15.23
2022-12-22T14:57:44.494Z,17.00
2022-12-22T15:00:08.707Z,14.90
2022-12-22T15:02:33.484Z,14.27
2022-12-22T15:04:38.772Z,17.07
2022-12-22T15:06:42.097Z,16.17
2022-12-22T15:08:44.097Z,12.60
2022-12-22T15:10:46.189Z,13.57
2022-12-22T15:12:49.253Z,12.00
2022-12-22T15:14:51.342Z,14.60
2022-12-22T15:16:58.336Z,12.43
2022-12-22T15:19:00.464Z,17.03
2022-12-22T15:21:02.892Z,16.07
2022-12-22T15:23:10.512Z,12.57
2022-12-22T15:25:20.636Z,14.90
2022-12-22T15:27:22.589Z,15.93
2022-12-22T15:29:24.589Z,12.10
2022-12-22T15:31:26.725Z,12.53
2022-12-22T15:33:30.321Z,14.33
2022-12-22T15:35:34.765Z,13.30
2022-12-22T15:37:36.761Z,16.27
2022-12-22T15:39:38.841Z,17.00
2022-12-22T15:41:41.618Z,14.87
2022-12-22T15:43:59.637Z,16.60
2022-12-22T15:46:02.805Z,18.37
2022-12-22T15:48:06.843Z,21.13
2022-12-22T15:50:14.390Z,20.10
2022-12-22T15:52:17.241Z,23.13
2022-12-22T15:54:19.878Z,21.47
2022-12-22T15:56:24.460Z,21.60
2022-12-22T15:58:29.052Z,28.30
2022-12-22T16:00:31.298Z,25.70
2022-12-22T16:02:33.481Z,21.43
2022-12-22T16:04:35.739Z,25.60
2022-12-22T16:06:38.062Z,22.83
2022-12-22T16:08:42.086Z,25.83
2022-12-22T16:10:44.287Z,25.33
2022-12-22T16:12:54.115Z,26.67
2022-12-22T16:14:57.095Z,27.20
2022-12-22T16:16:59.053Z,26.17
2022-12-22T16:19:01.073Z,27.60
2022-12-22T16:21:08.415Z,32.13
2022-12-22T16:23:16.300Z,28.10
2022-12-22T16:25:24.128Z,29.63
2022-12-22T16:27:26.166Z,27.53
2022-12-22T16:29:28.141Z,27.10
2022-12-22T16:31:30.131Z,28.80
2022-12-22T16:33:32.242Z,30.63
2022-12-22T16:35:34.247Z,29.80
2022-12-22T16:37:36.270Z,31.87
2022-12-22T16:39:38.329Z,30.50
2022-12-22T16:41:41.098Z,34.83
2022-12-22T16:46:05.673Z,38.00
2022-12-22T16:48:13.085Z,37.00
2022-12-22T16:50:23.039Z,32.70
2022-12-22T16:52:30.002Z,36.60
2022-12-22T16:54:32.010Z,36.57
2022-12-22T16:56:34.970Z,36.43
2022-12-22T16:58:36.946Z,42.13
2022-12-22T17:00:39.916Z,35.90
2022-12-22T17:02:42.890Z,37.80
2022-12-22T17:04:45.249Z,37.13
2022-12-22T17:06:48.940Z,37.07
2022-12-22T17:08:50.929Z,32.70
2022-12-22T17:10:54.711Z,31.47
2022-12-22T17:12:57.707Z,37.17
2022-12-22T17:15:00.955Z,33.03
2022-12-22T17:17:03.892Z,34.07
2022-12-22T17:19:06.356Z,40.00
2022-12-22T17:21:08.882Z,38.17
2022-12-22T17:23:31.725Z,31.30
2022-12-22T17:25:34.070Z,38.63
2022-12-22T17:27:36.162Z,32.30
2022-12-22T17:29:38.571Z,30.30
2022-12-22T17:31:40.608Z,28.53
2022-12-22T17:33:42.869Z,31.80
2022-12-22T17:35:46.352Z,34.27
2022-12-22T17:37:49.188Z,32.37
2022-12-22T17:39:56.096Z,28.10
2022-12-22T17:41:58.383Z,25.20
2022-12-22T17:44:00.498Z,29.27
2022-12-22T17:46:02.534Z,38.30
2022-12-22T17:48:04.931Z,30.47
2022-12-22T17:50:08.374Z,31.10
2022-12-22T17:52:18.701Z,25.57
2022-12-22T17:54:23.795Z,25.23
2022-12-22T17:56:27.603Z,27.13
2022-12-22T17:58:29.597Z,25.27
2022-12-22T18:00:32.283Z,27.53
2022-12-22T18:02:34.447Z,23.60
2022-12-22T18:04:36.556Z,28.77
2022-12-22T18:06:39.720Z,34.87
2022-12-22T18:08:41.840Z,34.60
2022-12-22T18:10:44.431Z,32.47
2022-12-22T18:12:46.467Z,35.00
2022-12-22T18:14:49.362Z,32.57
2022-12-22T18:16:51.404Z,33.27
2022-12-22T18:18:53.476Z,29.23
2022-12-22T18:21:05.899Z,34.10
2022-12-22T18:23:16.984Z,28.90
2022-12-22T18:25:25.121Z,27.90
2022-12-22T18:27:27.099Z,26.87
2022-12-22T18:29:30.276Z,26.40
2022-12-22T18:31:32.984Z,29.03
2022-12-22T18:33:35.050Z,37.67
2022-12-22T18:35:37.573Z,37.73
2022-12-22T18:37:40.359Z,34.20
2022-12-22T18:39:43.996Z,28.10
2022-12-22T18:41:46.394Z,35.77
2022-12-22T18:43:49.026Z,35.07
2022-12-22T18:45:51.016Z,35.03
2022-12-22T18:47:53.787Z,30.67
2022-12-22T18:49:55.849Z,34.23
2022-12-22T18:51:58.057Z,29.07
2022-12-22T18:54:00.032Z,54.43
2022-12-22T18:56:02.016Z,42.57
2022-12-22T18:58:04.013Z,488.90
2022-12-22T19:00:13.388Z,294.20
2022-12-22T19:02:22.396Z,231.00
2022-12-22T19:04:24.614Z,163.70
2022-12-22T19:06:29.966Z,223.93
2022-12-22T19:08:31.961Z,58.13
2022-12-22T19:10:37.734Z,70.53
2022-12-22T19:12:39.714Z,79.93
2022-12-22T19:14:47.657Z,123.87
2022-12-22T19:16:49.653Z,82.37
2022-12-22T19:18:51.726Z,72.93
2022-12-22T19:20:54.105Z,44.63
2022-12-22T19:22:56.154Z,43.03
2022-12-22T19:24:59.032Z,73.77
2022-12-22T19:27:01.756Z,249.53
2022-12-22T19:29:04.366Z,294.53
2022-12-22T19:31:07.675Z,133.13
2022-12-22T19:33:18.053Z,133.23
2022-12-22T19:35:21.547Z,91.33
2022-12-22T19:37:23.545Z,36.47
2022-12-22T19:39:25.476Z,30.93
2022-12-22T19:41:39.964Z,34.70
2022-12-22T19:43:41.927Z,26.27
2022-12-22T19:45:43.955Z,30.90
2022-12-22T19:47:46.420Z,20.23
2022-12-22T19:49:48.591Z,24.43
2022-12-22T19:51:50.698Z,20.20
2022-12-22T19:53:52.775Z,26.30
2022-12-22T19:55:56.474Z,29.03
2022-12-22T19:57:58.469Z,25.23
2022-12-22T20:00:00.611Z,26.83
2022-12-22T20:02:06.481Z,57.17
2022-12-22T20:04:12.356Z,192.57
2022-12-22T20:06:14.931Z,47.97
2022-12-22T20:08:17.215Z,22.57
2022-12-22T20:10:20.076Z,23.90
2022-12-22T20:12:29.997Z,19.13
2022-12-22T20:14:32.008Z,23.40
2022-12-22T20:16:34.234Z,29.87
2022-12-22T20:18:36.260Z,30.03
2022-12-22T20:20:38.760Z,21.07
2022-12-22T20:22:43.544Z,23.37
2022-12-22T20:24:46.589Z,42.00
2022-12-22T20:26:53.723Z,21.87
2022-12-22T20:28:56.401Z,22.43
2022-12-22T20:30:58.562Z,25.30
2022-12-22T20:33:01.160Z,23.43
2022-12-22T20:35:04.105Z,15.27
2022-12-22T20:37:06.122Z,18.97
2022-12-22T20:39:12.420Z,17.63
2022-12-22T20:41:14.496Z,17.97
2022-12-22T20:43:20.534Z,30.53
2022-12-22T20:45:22.797Z,24.60
2022-12-22T20:47:24.853Z,20.67
2022-12-22T20:49:26.840Z,23.40
2022-12-22T20:51:32.022Z,20.93
2022-12-22T20:53:34.347Z,27.43
2022-12-22T20:55:36.862Z,18.60
2022-12-22T20:57:38.887Z,22.80
2022-12-22T20:59:40.951Z,21.03
2022-12-22T21:01:43.371Z,24.67
2022-12-22T21:03:45.812Z,19.60
2022-12-22T21:05:47.988Z,18.10
2022-12-22T21:07:50.095Z,17.70
2022-12-22T21:09:52.088Z,21.60
2022-12-22T21:11:54.125Z,23.07
2022-12-22T21:13:57.344Z,22.77
2022-12-22T21:15:59.442Z,26.03
2022-12-22T21:18:01.425Z,18.53
2022-12-22T21:20:03.699Z,16.27
2022-12-22T21:22:05.715Z,19.67
2022-12-22T21:24:07.768Z,24.27
2022-12-22T21:26:38.042Z,20.77
2022-12-22T21:28:40.102Z,19.93
2022-12-22T21:30:42.179Z,20.67
2022-12-22T21:32:44.601Z,23.73
2022-12-22T21:34:46.631Z,22.20
2022-12-22T21:36:50.159Z,22.00
2022-12-22T21:38:54.624Z,21.47
2022-12-22T21:40:56.683Z,19.00
2022-12-22T21:42:58.987Z,18.97
2022-12-22T21:45:00.919Z,17.97
2022-12-22T21:47:03.576Z,22.37
2022-12-22T21:49:05.663Z,17.70
2022-12-22T21:51:11.497Z,19.33
2022-12-22T21:53:19.763Z,26.53
2022-12-22T21:55:36.054Z,18.57
2022-12-22T21:57:38.090Z,20.47
2022-12-22T21:59:40.269Z,20.40
2022-12-22T22:01:43.185Z,18.70
2022-12-22T22:03:45.283Z,19.40
2022-12-22T22:05:48.098Z,21.10
2022-12-22T22:07:50.430Z,19.77
2022-12-22T22:09:52.538Z,17.40
2022-12-22T22:12:12.819Z,18.30
2022-12-22T22:14:14.946Z,54.37
2022-12-22T22:16:17.475Z,18.83
2022-12-22T22:18:20.231Z,20.23
2022-12-22T22:20:24.846Z,19.83
2022-12-22T22:22:26.983Z,17.87
2022-12-22T22:24:30.891Z,25.03
2022-12-22T22:26:33.009Z,25.50
2022-12-22T22:28:35.301Z,17.93
2022-12-22T22:30:37.299Z,18.57
2022-12-22T22:32:39.359Z,24.33
2022-12-22T22:34:41.515Z,30.30
2022-12-22T22:36:43.664Z,20.27
2022-12-22T22:38:45.663Z,15.83
2022-12-22T22:40:48.205Z,17.53
2022-12-22T22:42:50.251Z,18.67
2022-12-22T22:44:52.282Z,17.77
2022-12-22T22:46:54.362Z,17.53
2022-12-22T22:48:58.624Z,25.97
2022-12-22T22:51:00.759Z,21.20
2022-12-22T22:53:02.843Z,23.43
2022-12-22T22:55:05.182Z,31.70
2022-12-22T22:57:07.247Z,24.30
2022-12-22T22:59:12.058Z,27.40
2022-12-22T23:01:14.207Z,19.90
2022-12-22T23:03:16.760Z,22.10
2022-12-22T23:05:22.880Z,25.40
2022-12-22T23:07:25.290Z,28.30
2022-12-22T23:09:27.254Z,24.90
2022-12-22T23:11:29.250Z,33.90
2022-12-22T23:13:31.532Z,25.57
2022-12-22T23:15:33.501Z,35.40
2022-12-22T23:17:35.489Z,26.63
2022-12-22T23:19:38.549Z,25.60
2022-12-22T23:21:40.855Z,28.50
2022-12-22T23:23:42.898Z,36.67
2022-12-22T23:25:46.446Z,29.97
2022-12-22T23:27:48.633Z,29.10
2022-12-22T23:29:50.602Z,29.40
2022-12-22T23:31:52.863Z,28.93
2022-12-22T23:33:56.820Z,25.87
2022-12-22T23:35:59.070Z,27.00
2022-12-22T23:38:01.095Z,32.73
2022-12-22T23:40:33.301Z,32.57
2022-12-22T23:42:25.571Z,32.93
2022-12-22T23:44:27.691Z,28.40
2022-12-22T23:46:29.733Z,30.30
2022-12-22T23:48:32.030Z,32.90
2022-12-22T23:50:34.277Z,29.53
2022-12-22T23:52:36.283Z,28.10
2022-12-22T23:54:38.326Z,33.70
2022-12-22T23:56:40.334Z,38.40
2022-12-22T23:58:42.634Z,36.53
